Time;durP1;ratioP1;P1;durP2;ratioP2;P2;SDS_P1;SDS_P2;PMS_P1;PMS_P2;Temp;Humidity;BMP_temperature;BMP_pressure;BME280_temperature;BME280_humidity;BME280_pressure;Samples;Min_cycle;Max_cycle;Signal;HPM_P1;HPM_P2
2024/02/04 00:01:06;;;;;;;;;;;;;;;;;;5097684;28;19930;-69
2024/02/04 00:03:32;;;;;;;;;;;;;;;;;;5097487;28;19908;-69
2024/02/04 00:05:58;;;;;;;;;;;;;;;;;;5097194;28;19908;-68
2024/02/04 00:08:24;;;;;;;;;;;;;;;;;;5097585;28;20040;-70
2024/02/04 00:10:50;;;;;;;;;;;;;;;;;;5097201;28;19935;-69
2024/02/04 00:13:16;;;;;;;;;;;;;;;;;;5097453;28;19961;-69
2024/02/04 00:15:42;;;;;;;;;;;;;;;;;;5097309;28;19961;-69
2024/02/04 00:18:08;;;;;;;;;;;;;;;;;;5096989;28;19908;-69
2024/02/04 00:20:34;;;;;;;;;;;;;;;;;;5097342;28;19916;-69
2024/02/04 00:23:00;;;;;;;;;;;;;;;;;;5097282;28;19953;-69
2024/02/04 00:25:26;;;;;;;;;;;;;;;;;;5096835;28;19912;-70
2024/02/04 00:27:52;;;;;;;;;;;;;;;;;;5097180;28;19936;-69
2024/02/04 00:30:17;;;;;;;;;;;;;;;;;;5097064;28;19908;-69
2024/02/04 00:32:43;;;;;;;;;;;;;;;;;;5096635;28;19908;-69
2024/02/04 00:35:09;;;;;;;;;;;;;;;;;;5097307;28;19987;-69
2024/02/04 00:37:35;;;;;;;;;;;;;;;;;;5096990;28;19999;-69
2024/02/04 00:40:01;;;;;;;;;;;;;;;;;;5096770;28;20329;-70
2024/02/04 00:42:27;;;;;;;;;;;;;;;;;;5096895;28;19950;-70
2024/02/04 00:44:53;;;;;;;;;;;;;;;;;;5096868;28;20280;-69
2024/02/04 00:47:19;;;;;;;;;;;;;;;;;;5096502;28;19916;-69
2024/02/04 00:49:45;;;;;;;;;;;;;;;;;;5096777;28;19952;-68
2024/02/04 00:52:11;;;;;;;;;;;;;;;;;;5096837;28;19908;-70
2024/02/04 00:54:37;;;;;;;;;;;;;;;;;;5096246;28;19909;-69
2024/02/04 00:57:03;;;;;;;;;;;;;;;;;;5096651;28;19908;-69
2024/02/04 00:59:29;;;;;;;;;;;;;;;;;;5096665;28;20021;-70
2024/02/04 01:01:55;;;;;;;;;;;;;;;;;;5096155;28;19915;-70
2024/02/04 01:04:23;;;;;;;;;;;;;;;;;;5096574;28;20003;-69
2024/02/04 01:06:48;;;;;;;;;;;;;;;;;;5096670;28;20382;-69
2024/02/04 01:09:14;;;;;;;;;;;;;;;;;;5095631;28;19908;-69
2024/02/04 01:11:40;;;;;;;;;;;;;;;;;;5096901;28;19915;-69
2024/02/04 01:14:06;;;;;;;;;;;;;;;;;;5096475;28;19912;-70
2024/02/04 01:16:32;;;;;;;;;;;;;;;;;;5096368;28;19923;-69
2024/02/04 01:18:58;;;;;;;;;;;;;;;;;;5096425;28;19912;-70
2024/02/04 01:21:25;;;;;;;;;;;;;;;;;;5096103;28;20003;-70
2024/02/04 01:23:51;;;;;;;;;;;;;;;;;;5096642;28;19915;-69
2024/02/04 01:26:17;;;;;;;;;;;;;;;;;;5096147;28;19908;-70
2024/02/04 01:28:43;;;;;;;;;;;;;;;;;;5095654;28;19908;-69
2024/02/04 01:31:09;;;;;;;;;;;;;;;;;;5096010;28;19912;-70
2024/02/04 01:33:35;;;;;;;;;;;;;;;;;;5096248;28;19908;-70
2024/02/04 01:36:01;;;;;;;;;;;;;;;;;;5095482;28;19942;-70
2024/02/04 01:38:27;;;;;;;;;;;;;;;;;;5095934;28;20292;-69
2024/02/04 01:40:53;;;;;;;;;;;;;;;;;;5095843;28;19948;-69
2024/02/04 01:43:21;;;;;;;;;;;;;;;;;;5095369;28;19909;-69
2024/02/04 01:45:47;;;;;;;;;;;;;;;;;;5095713;28;19912;-70
2024/02/04 01:48:15;;;;;;;;;;;;;;;;;;5095703;28;19961;-69
2024/02/04 01:50:41;;;;;;;;;;;;;;;;;;5095167;28;19908;-69
2024/02/04 01:53:07;;;;;;;;;;;;;;;;;;5095643;28;20308;-69
2024/02/04 01:55:33;;;;;;;;;;;;;;;;;;5094212;28;20051;-69
2024/02/04 01:57:59;;;;;;;;;;;;;;;;;;5095058;28;19919;-69
2024/02/04 02:00:25;;;;;;;;;;;;;;;;;;5095452;28;19908;-69
2024/02/04 02:02:51;;;;;;;;;;;;;;;;;;5095351;28;19923;-67
2024/02/04 02:05:17;;;;;;;;;;;;;;;;;;5094950;28;19908;-67
2024/02/04 02:07:45;;;;;;;;;;;;;;;;;;5095321;28;19947;-67
2024/02/04 02:10:12;;;;;;;;;;;;;;;;;;5095167;28;20356;-67
2024/02/04 02:12:38;;;;;;;;;;;;;;;;;;5094776;28;19908;-67
2024/02/04 02:15:04;;;;;;;;;;;;;;;;;;5095064;28;20015;-67
2024/02/04 02:17:30;;;;;;;;;;;;;;;;;;5094994;28;19919;-67
2024/02/04 02:19:56;;;;;;;;;;;;;;;;;;5094262;28;19908;-68
2024/02/04 02:22:22;;;;;;;;;;;;;;;;;;5095042;28;19908;-68
2024/02/04 02:24:48;;;;;;;;;;;;;;;;;;5094734;28;19916;-68
2024/02/04 02:27:14;;;;;;;;;;;;;;;;;;5094962;28;19915;-68
2024/02/04 02:29:40;;;;;;;;;;;;;;;;;;5095453;28;20396;-68
2024/02/04 02:32:05;;;;;;;;;;;;;;;;;;5094435;28;20045;-68
2024/02/04 02:34:31;;;;;;;;;;;;;;;;;;5094610;28;19920;-68
2024/02/04 02:36:58;;;;;;;;;;;;;;;;;;5095060;28;19916;-68
2024/02/04 02:39:24;;;;;;;;;;;;;;;;;;5094367;28;19912;-68
2024/02/04 02:41:53;;;;;;;;;;;;;;;;;;5094642;28;20356;-68
2024/02/04 02:44:19;;;;;;;;;;;;;;;;;;5095207;28;19916;-68
2024/02/04 02:46:45;;;;;;;;;;;;;;;;;;5094149;28;19923;-68
2024/02/04 02:49:11;;;;;;;;;;;;;;;;;;5094488;28;19908;-68
2024/02/04 02:51:37;;;;;;;;;;;;;;;;;;5094676;28;19995;-68
2024/02/04 02:54:02;;;;;;;;;;;;;;;;;;5093970;28;19909;-68
2024/02/04 02:56:28;;;;;;;;;;;;;;;;;;5094566;28;19924;-68
2024/02/04 02:58:54;;;;;;;;;;;;;;;;;;5094255;28;20276;-68
2024/02/04 03:01:20;;;;;;;;;;;;;;;;;;5093854;28;19916;-68
2024/02/04 03:03:46;;;;;;;;;;;;;;;;;;5094474;28;19908;-68
2024/02/04 03:06:12;;;;;;;;;;;;;;;;;;5094431;28;20002;-68
2024/02/04 03:08:38;;;;;;;;;;;;;;;;;;5093838;28;19915;-68
2024/02/04 03:11:04;;;;;;;;;;;;;;;;;;5094119;28;19908;-68
2024/02/04 03:13:30;;;;;;;;;;;;;;;;;;5094223;28;19908;-68
2024/02/04 03:15:56;;;;;;;;;;;;;;;;;;5093602;28;19920;-68
2024/02/04 03:18:22;;;;;;;;;;;;;;;;;;5094253;28;19914;-68
2024/02/04 03:20:48;;;;;;;;;;;;;;;;;;5093650;28;19908;-68
2024/02/04 03:23:14;;;;;;;;;;;;;;;;;;5094004;28;19936;-68
2024/02/04 03:25:40;;;;;;;;;;;;;;;;;;5093933;28;19908;-69
2024/02/04 03:28:06;;;;;;;;;;;;;;;;;;5093544;28;19923;-69
2024/02/04 03:30:32;;;;;;;;;;;;;;;;;;5093705;28;19909;-69
2024/02/04 03:32:57;;;;;;;;;;;;;;;;;;5094180;28;19915;-69
2024/02/04 03:35:23;;;;;;;;;;;;;;;;;;5093280;28;19924;-69
2024/02/04 03:37:49;;;;;;;;;;;;;;;;;;5093930;28;19908;-69
2024/02/04 03:40:15;;;;;;;;;;;;;;;;;;5094095;28;20383;-69
2024/02/04 03:42:41;;;;;;;;;;;;;;;;;;5093450;28;20316;-69
2024/02/04 03:45:07;;;;;;;;;;;;;;;;;;5093828;28;19908;-69
2024/02/04 03:47:33;;;;;;;;;;;;;;;;;;5093874;28;19993;-69
2024/02/04 03:49:59;;;;;;;;;;;;;;;;;;5093510;28;19918;-69
2024/02/04 03:52:25;;;;;;;;;;;;;;;;;;5093685;28;19951;-69
2024/02/04 03:54:51;;;;;;;;;;;;;;;;;;5093666;28;20273;-68
2024/02/04 03:57:17;;;;;;;;;;;;;;;;;;5093208;28;20275;-69
2024/02/04 03:59:43;;;;;;;;;;;;;;;;;;5093933;28;19915;-69
2024/02/04 04:02:09;;;;;;;;;;;;;;;;;;5093592;28;19944;-69
2024/02/04 04:04:35;;;;;;;;;;;;;;;;;;5093331;28;19908;-69
2024/02/04 04:07:01;;;;;;;;;;;;;;;;;;5093703;28;19914;-69
2024/02/04 04:09:27;;;;;;;;;;;;;;;;;;5093562;28;19953;-69
2024/02/04 04:11:53;;;;;;;;;;;;;;;;;;5093122;28;19912;-69
2024/02/04 04:14:19;;;;;;;;;;;;;;;;;;5093474;28;19919;-69
2024/02/04 04:16:45;;;;;;;;;;;;;;;;;;5093466;28;19919;-69
2024/02/04 04:19:10;;;;;;;;;;;;;;;;;;5093071;28;19943;-68
2024/02/04 04:21:37;;;;;;;;;;;;;;;;;;5093553;28;19915;-69
2024/02/04 04:24:03;;;;;;;;;;;;;;;;;;5093074;28;19908;-68
2024/02/04 04:26:29;;;;;;;;;;;;;;;;;;5093966;28;19912;-69
2024/02/04 04:28:55;;;;;;;;;;;;;;;;;;5093548;28;19914;-69
2024/02/04 04:31:21;;;;;;;;;;;;;;;;;;5092983;28;19909;-69
2024/02/04 04:33:47;;;;;;;;;;;;;;;;;;5093367;28;19908;-69
2024/02/04 04:36:13;;;;;;;;;;;;;;;;;;5093065;28;20356;-69
2024/02/04 04:38:39;;;;;;;;;;;;;;;;;;5092857;28;19912;-69
2024/02/04 04:41:05;;;;;;;;;;;;;;;;;;5093173;28;19908;-69
2024/02/04 04:43:31;;;;;;;;;;;;;;;;;;5095421;28;19916;-69
2024/02/04 04:45:56;;;;;;;;;;;;;;;;;;5096545;28;19908;-69
2024/02/04 04:48:22;;;;;;;;;;;;;;;;;;5097354;28;20375;-69
2024/02/04 04:50:48;;;;;;;;;;;;;;;;;;5096822;28;20265;-70
2024/02/04 04:53:14;;;;;;;;;;;;;;;;;;5096468;28;19915;-69
2024/02/04 04:55:40;;;;;;;;;;;;;;;;;;5096716;28;19955;-69
2024/02/04 04:58:06;;;;;;;;;;;;;;;;;;5095390;28;19915;-69
2024/02/04 05:00:32;;;;;;;;;;;;;;;;;;5096255;28;19908;-69
2024/02/04 05:02:58;;;;;;;;;;;;;;;;;;5096915;28;19912;-69
2024/02/04 05:05:24;;;;;;;;;;;;;;;;;;5096543;28;19913;-69
2024/02/04 05:07:50;;;;;;;;;;;;;;;;;;5096251;28;19915;-69
2024/02/04 05:10:16;;;;;;;;;;;;;;;;;;5096438;28;19961;-69
2024/02/04 05:12:42;;;;;;;;;;;;;;;;;;5096757;28;19990;-69
2024/02/04 05:15:08;;;;;;;;;;;;;;;;;;5095958;28;20464;-68
2024/02/04 05:17:35;;;;;;;;;;;;;;;;;;5096295;28;20233;-68
2024/02/04 05:20:03;;;;;;;;;;;;;;;;;;5096270;28;20058;-69
2024/02/04 05:22:28;;;;;;;;;;;;;;;;;;5095780;28;19912;-68
2024/02/04 05:24:54;;;;;;;;;;;;;;;;;;5096170;28;19909;-69
2024/02/04 05:27:20;;;;;;;;;;;;;;;;;;5095682;28;19908;-69
2024/02/04 05:29:46;;;;;;;;;;;;;;;;;;5096411;28;19959;-69
2024/02/04 05:32:12;;;;;;;;;;;;;;;;;;5095877;28;19909;-69
2024/02/04 05:34:38;;;;;;;;;;;;;;;;;;5095479;28;19927;-69
2024/02/04 05:37:04;;;;;;;;;;;;;;;;;;5096143;28;19920;-69
2024/02/04 05:39:30;;;;;;;;;;;;;;;;;;5094664;28;20253;-69
2024/02/04 05:41:56;;;;;;;;;;;;;;;;;;5095431;28;19930;-69
2024/02/04 05:44:22;;;;;;;;;;;;;;;;;;5095776;28;19991;-69
2024/02/04 05:46:48;;;;;;;;;;;;;;;;;;5095851;28;20360;-69
2024/02/04 05:49:14;;;;;;;;;;;;;;;;;;5095290;28;19939;-69
2024/02/04 05:51:40;;;;;;;;;;;;;;;;;;5095794;28;19909;-69
2024/02/04 05:54:06;;;;;;;;;;;;;;;;;;5095510;28;19919;-69
2024/02/04 05:56:32;;;;;;;;;;;;;;;;;;5095009;28;19959;-69
2024/02/04 05:58:58;;;;;;;;;;;;;;;;;;5095445;28;20253;-69
2024/02/04 06:01:24;;;;;;;;;;;;;;;;;;5095587;28;19908;-69
2024/02/04 06:03:50;;;;;;;;;;;;;;;;;;5094958;28;19908;-69
2024/02/04 06:06:16;;;;;;;;;;;;;;;;;;5095554;28;19908;-69
2024/02/04 06:08:42;;;;;;;;;;;;;;;;;;5095218;28;19909;-69
2024/02/04 06:11:08;;;;;;;;;;;;;;;;;;5094810;28;19930;-69
2024/02/04 06:13:34;;;;;;;;;;;;;;;;;;5095140;28;19912;-69
2024/02/04 06:16:00;;;;;;;;;;;;;;;;;;5095124;28;19922;-69
2024/02/04 06:18:26;;;;;;;;;;;;;;;;;;5094723;28;19934;-69
2024/02/04 06:20:52;;;;;;;;;;;;;;;;;;5095093;28;19973;-69
2024/02/04 06:23:19;;;;;;;;;;;;;;;;;;5095034;28;19912;-69
2024/02/04 06:25:45;;;;;;;;;;;;;;;;;;5094712;28;19909;-70
2024/02/04 06:28:11;;;;;;;;;;;;;;;;;;5093605;28;19908;-69
2024/02/04 06:30:37;;;;;;;;;;;;;;;;;;5094656;28;19962;-70
2024/02/04 06:33:03;;;;;;;;;;;;;;;;;;5095147;28;19951;-69
2024/02/04 06:35:29;;;;;;;;;;;;;;;;;;5094535;28;19924;-69
2024/02/04 06:37:55;;;;;;;;;;;;;;;;;;5094613;28;19908;-69
2024/02/04 06:40:21;;;;;;;;;;;;;;;;;;5094766;28;19908;-69
2024/02/04 06:42:47;;;;;;;;;;;;;;;;;;5094670;28;19908;-69
2024/02/04 06:45:13;;;;;;;;;;;;;;;;;;5094221;28;20249;-69
2024/02/04 06:47:39;;;;;;;;;;;;;;;;;;5094550;28;19935;-69
2024/02/04 06:50:05;;;;;;;;;;;;;;;;;;5094484;28;19952;-69
2024/02/04 06:52:31;;;;;;;;;;;;;;;;;;5094193;28;20261;-69
2024/02/04 06:54:57;;;;;;;;;;;;;;;;;;5094599;28;19908;-69
2024/02/04 06:57:23;;;;;;;;;;;;;;;;;;5094447;28;19961;-69
2024/02/04 06:59:49;;;;;;;;;;;;;;;;;;5093991;28;19912;-69
2024/02/04 07:02:15;;;;;;;;;;;;;;;;;;5094269;28;19922;-69
2024/02/04 07:04:41;;;;;;;;;;;;;;;;;;5094257;28;19908;-69
2024/02/04 07:07:07;;;;;;;;;;;;;;;;;;5093407;28;19909;-69
2024/02/04 07:09:33;;;;;;;;;;;;;;;;;;5094402;28;20375;-69
2024/02/04 07:11:59;;;;;;;;;;;;;;;;;;5094130;28;19912;-69
2024/02/04 07:14:25;;;;;;;;;;;;;;;;;;5093805;28;19912;-69
2024/02/04 07:16:51;;;;;;;;;;;;;;;;;;5094046;28;19916;-69
2024/02/04 07:19:17;;;;;;;;;;;;;;;;;;5094087;28;19967;-69
2024/02/04 07:21:43;;;;;;;;;;;;;;;;;;5093736;28;20348;-69
2024/02/04 07:24:09;;;;;;;;;;;;;;;;;;5094046;28;19939;-69
2024/02/04 07:26:35;;;;;;;;;;;;;;;;;;5093959;28;19931;-69
2024/02/04 07:29:01;;;;;;;;;;;;;;;;;;5093540;28;19912;-69
2024/02/04 07:31:27;;;;;;;;;;;;;;;;;;5093893;28;19915;-70
2024/02/04 07:33:53;;;;;;;;;;;;;;;;;;5093847;28;19908;-69
2024/02/04 07:36:19;;;;;;;;;;;;;;;;;;5093331;28;19977;-69
2024/02/04 07:38:45;;;;;;;;;;;;;;;;;;5093813;28;19908;-69
2024/02/04 07:41:11;;;;;;;;;;;;;;;;;;5093313;28;19908;-69
2024/02/04 07:43:37;;;;;;;;;;;;;;;;;;5093848;28;19915;-69
2024/02/04 07:46:03;;;;;;;;;;;;;;;;;;5093939;28;19912;-69
2024/02/04 07:48:29;;;;;;;;;;;;;;;;;;5093425;28;19912;-70
2024/02/04 07:50:55;;;;;;;;;;;;;;;;;;5093696;28;19912;-69
2024/02/04 07:53:23;;;;;;;;;;;;;;;;;;5093629;28;19909;-69
2024/02/04 07:55:49;;;;;;;;;;;;;;;;;;5093247;28;19920;-70
2024/02/04 07:58:15;;;;;;;;;;;;;;;;;;5093762;28;19908;-69
2024/02/04 08:00:41;;;;;;;;;;;;;;;;;;5093548;28;19954;-69
2024/02/04 08:03:07;;;;;;;;;;;;;;;;;;5093087;28;19908;-70
2024/02/04 08:05:35;;;;;;;;;;;;;;;;;;5093513;28;20322;-70
2024/02/04 08:08:01;;;;;;;;;;;;;;;;;;5093610;28;20038;-70
2024/02/04 08:10:27;;;;;;;;;;;;;;;;;;5093270;28;19951;-69
2024/02/04 08:12:53;;;;;;;;;;;;;;;;;;5093630;28;19919;-70
2024/02/04 08:15:19;;;;;;;;;;;;;;;;;;5093493;28;19920;-69
2024/02/04 08:17:45;;;;;;;;;;;;;;;;;;5094133;28;19955;-69
2024/02/04 08:20:11;;;;;;;;;;;;;;;;;;5097394;28;20377;-69
2024/02/04 08:22:37;;;;;;;;;;;;;;;;;;5097379;28;19991;-69
2024/02/04 08:25:03;;;;;;;;;;;;;;;;;;5097116;28;19908;-69
2024/02/04 08:27:29;;;;;;;;;;;;;;;;;;5097339;28;20378;-69
2024/02/04 08:29:55;;;;;;;;;;;;;;;;;;5097230;28;20324;-70
2024/02/04 08:32:21;;;;;;;;;;;;;;;;;;5096741;28;19908;-70
2024/02/04 08:34:47;;;;;;;;;;;;;;;;;;5097238;28;19920;-70
2024/02/04 08:37:13;;;;;;;;;;;;;;;;;;5097261;28;20352;-70
2024/02/04 08:39:39;;;;;;;;;;;;;;;;;;5097094;28;20326;-69
2024/02/04 08:42:05;;;;;;;;;;;;;;;;;;5096940;28;20002;-70
2024/02/04 08:44:31;;;;;;;;;;;;;;;;;;5096637;28;19915;-70
2024/02/04 08:46:57;;;;;;;;;;;;;;;;;;5096952;28;19908;-69
2024/02/04 08:49:23;;;;;;;;;;;;;;;;;;5097108;28;20364;-70
2024/02/04 08:51:49;;;;;;;;;;;;;;;;;;5096678;28;19953;-70
2024/02/04 08:54:17;;;;;;;;;;;;;;;;;;5096818;28;20280;-70
2024/02/04 08:56:43;;;;;;;;;;;;;;;;;;5096726;28;19923;-69
2024/02/04 08:59:09;;;;;;;;;;;;;;;;;;5096415;28;19912;-70
2024/02/04 09:01:35;;;;;;;;;;;;;;;;;;5096582;28;19963;-70
2024/02/04 09:04:01;;;;;;;;;;;;;;;;;;5096556;28;19912;-70
2024/02/04 09:06:27;;;;;;;;;;;;;;;;;;5096471;28;20407;-70
2024/02/04 09:08:53;;;;;;;;;;;;;;;;;;5096480;28;20257;-70
2024/02/04 09:11:20;;;;;;;;;;;;;;;;;;5096398;28;19908;-70
2024/02/04 09:13:46;;;;;;;;;;;;;;;;;;5096042;28;20268;-70
2024/02/04 09:16:12;;;;;;;;;;;;;;;;;;5096341;28;19916;-70
2024/02/04 09:18:38;;;;;;;;;;;;;;;;;;5096421;28;20280;-70
2024/02/04 09:21:04;;;;;;;;;;;;;;;;;;5095849;28;19912;-70
2024/02/04 09:23:30;;;;;;;;;;;;;;;;;;5096201;28;19908;-70
2024/02/04 09:25:56;;;;;;;;;;;;;;;;;;5096158;28;19909;-69
2024/02/04 09:28:22;;;;;;;;;;;;;;;;;;5095398;28;19912;-70
2024/02/04 09:30:48;;;;;;;;;;;;;;;;;;5096354;28;19915;-70
2024/02/04 09:33:14;;;;;;;;;;;;;;;;;;5095986;28;19908;-70
2024/02/04 09:35:40;;;;;;;;;;;;;;;;;;5095326;28;19955;-70
2024/02/04 09:38:06;;;;;;;;;;;;;;;;;;5095929;28;19961;-70
2024/02/04 09:40:32;;;;;;;;;;;;;;;;;;5095595;28;19916;-69
2024/02/04 09:42:58;;;;;;;;;;;;;;;;;;5095815;28;19931;-70
2024/02/04 09:45:24;;;;;;;;;;;;;;;;;;5096035;28;20348;-71
2024/02/04 09:47:50;;;;;;;;;;;;;;;;;;5095301;28;19911;-70
2024/02/04 09:50:16;;;;;;;;;;;;;;;;;;5095642;28;19908;-70
2024/02/04 09:52:42;;;;;;;;;;;;;;;;;;5095490;28;19908;-70
2024/02/04 09:55:08;;;;;;;;;;;;;;;;;;5095571;28;20136;-70
2024/02/04 09:57:34;;;;;;;;;;;;;;;;;;5096002;28;20387;-69
2024/02/04 10:00:00;;;;;;;;;;;;;;;;;;5095492;28;20241;-69
2024/02/04 10:02:26;;;;;;;;;;;;;;;;;;5095016;28;20369;-69
2024/02/04 10:04:52;;;;;;;;;;;;;;;;;;5095400;28;19908;-70
2024/02/04 10:07:18;;;;;;;;;;;;;;;;;;5095545;28;19969;-72
2024/02/04 10:09:44;;;;;;;;;;;;;;;;;;5094993;28;19923;-69
2024/02/04 10:12:10;;;;;;;;;;;;;;;;;;5095211;28;19912;-70
2024/02/04 10:14:36;;;;;;;;;;;;;;;;;;5095203;28;19915;-70
2024/02/04 10:17:02;;;;;;;;;;;;;;;;;;5094713;28;19923;-70
2024/02/04 10:19:28;;;;;;;;;;;;;;;;;;5095089;28;19908;-70
2024/02/04 10:21:54;;;;;;;;;;;;;;;;;;5095137;28;19908;-70
2024/02/04 10:24:20;;;;;;;;;;;;;;;;;;5093286;28;20351;-70
2024/02/04 10:26:46;;;;;;;;;;;;;;;;;;5095044;28;19915;-69
2024/02/04 10:29:12;;;;;;;;;;;;;;;;;;5094887;28;20390;-69
2024/02/04 10:31:38;;;;;;;;;;;;;;;;;;5094530;28;19908;-69
2024/02/04 10:34:04;;;;;;;;;;;;;;;;;;5094902;28;19908;-70
2024/02/04 10:36:30;;;;;;;;;;;;;;;;;;5094570;28;19920;-69
2024/02/04 10:38:56;;;;;;;;;;;;;;;;;;5094373;28;20367;-69
2024/02/04 10:41:22;;;;;;;;;;;;;;;;;;5094013;28;20005;-70
2024/02/04 10:43:48;;;;;;;;;;;;;;;;;;5094631;28;19908;-70
2024/02/04 10:46:14;;;;;;;;;;;;;;;;;;5094663;28;19908;-70
2024/02/04 10:48:42;;;;;;;;;;;;;;;;;;5094598;28;19908;-70
2024/02/04 10:51:08;;;;;;;;;;;;;;;;;;5094224;28;19908;-70
2024/02/04 10:53:33;;;;;;;;;;;;;;;;;;5094556;28;20289;-70
2024/02/04 10:57:32;;;;;;;;;;;;;;;;;;5092079;27;19916;-70
2024/02/04 10:59:58;;;;;;;;;;;;;;;;;;5091045;28;20003;-70
2024/02/04 11:03:29;;;;;;;;;;;;;;;;;;5112033;27;19922;-70
2024/02/04 11:05:55;;;;;;;;;;;;;;;;;;5111399;28;19912;-71
2024/02/04 11:10:58;;;;;;;;;;;;;;;;;;5112147;27;20376;-70
2024/02/04 11:13:24;;;;;;;;;;;;;;;;;;5111442;28;20322;-69
2024/02/04 11:15:50;;;;;;;;;;;;;;;;;;5111861;28;19908;-69
2024/02/04 11:18:16;;;;;;;;;;;;;;;;;;5111549;28;20382;-69
2024/02/04 11:20:42;;;;;;;;;;;;;;;;;;5111232;28;19912;-70
2024/02/04 11:23:08;;;;;;;;;;;;;;;;;;5111562;28;20006;-70
2024/02/04 11:26:27;;;;;;;;;;;;;;;;;;5090943;27;19974;-71
2024/02/04 11:28:53;;;;;;;;;;;;;;;;;;5091241;28;20277;-71
2024/02/04 11:31:19;;;;;;;;;;;;;;;;;;5091195;28;19915;-71
2024/02/04 11:34:41;;;;;;;;;;;;;;;;;;5091091;27;19917;-70
2024/02/04 11:37:07;;;;;;;;;;;;;;;;;;5091269;28;19912;-71
2024/02/04 11:39:33;;;;;;;;;;;;;;;;;;5091134;28;19908;-70
2024/02/04 11:41:59;;;;;;;;;;;;;;;;;;5090774;28;19944;-71
2024/02/04 11:44:25;;;;;;;;;;;;;;;;;;5091095;28;20331;-71
2024/02/04 11:46:51;;;;;;;;;;;;;;;;;;5091436;28;19913;-71
2024/02/04 11:50:03;;;;;;;;;;;;;;;;;;5091721;27;19922;-69
2024/02/04 11:52:29;;;;;;;;;;;;;;;;;;5091159;28;20011;-70
2024/02/04 11:56:33;;;;;;;;;;;;;;;;;;5091277;27;20384;-70
2024/02/04 12:01:30;;;;;;;;;;;;;;;;;;5111950;27;20386;-69
2024/02/04 12:03:56;;;;;;;;;;;;;;;;;;5111629;28;19912;-70
2024/02/04 12:07:28;;;;;;;;;;;;;;;;;;5091320;27;19923;-70
2024/02/04 12:09:53;;;;;;;;;;;;;;;;;;5091228;28;19912;-70
2024/02/04 12:12:20;;;;;;;;;;;;;;;;;;5090235;28;20382;-71
2024/02/04 12:17:32;;;;;;;;;;;;;;;;;;5071030;28;20308;-70
2024/02/04 12:19:58;;;;;;;;;;;;;;;;;;5071065;28;20015;-70
2024/02/04 12:22:24;;;;;;;;;;;;;;;;;;5070566;28;19913;-69
2024/02/04 12:24:50;;;;;;;;;;;;;;;;;;5071145;28;19909;-69
2024/02/04 12:27:17;;;;;;;;;;;;;;;;;;5070958;28;19912;-70
2024/02/04 12:29:43;;;;;;;;;;;;;;;;;;5070477;28;19978;-70
2024/02/04 12:35:29;;;;;;;;;;;;;;;;;;5112016;27;19912;-69
2024/02/04 12:37:56;;;;;;;;;;;;;;;;;;5111331;28;19919;-69
2024/02/04 12:40:22;;;;;;;;;;;;;;;;;;5111776;28;19915;-69
2024/02/04 12:42:48;;;;;;;;;;;;;;;;;;5111458;28;19908;-70
2024/02/04 12:48:18;;;;;;;;;;;;;;;;;;5091393;27;19923;-69
2024/02/04 12:50:44;;;;;;;;;;;;;;;;;;5090741;28;19913;-68
2024/02/04 12:53:13;;;;;;;;;;;;;;;;;;5091151;28;19978;-69
2024/02/04 12:57:47;;;;;;;;;;;;;;;;;;5070833;28;20318;-69
2024/02/04 13:00:13;;;;;;;;;;;;;;;;;;5071143;28;20003;-70
2024/02/04 13:02:39;;;;;;;;;;;;;;;;;;5070998;28;19940;-70
2024/02/04 13:06:45;;;;;;;;;;;;;;;;;;5071236;28;19917;-68
2024/02/04 13:09:23;;;;;;;;;;;;;;;;;;5091361;27;19919;-70
2024/02/04 13:11:49;;;;;;;;;;;;;;;;;;5090815;28;19912;-70
2024/02/04 13:14:16;;;;;;;;;;;;;;;;;;5091194;28;19962;-69
2024/02/04 13:17:34;;;;;;;;;;;;;;;;;;5174126;27;19915;-69
2024/02/04 13:20:00;;;;;;;;;;;;;;;;;;5173593;27;20446;-69
2024/02/04 13:24:36;;;;;;;;;;;;;;;;;;5091274;27;19922;-69
2024/02/04 13:27:07;;;;;;;;;;;;;;;;;;5090810;28;20003;-69
2024/02/04 13:29:33;;;;;;;;;;;;;;;;;;5091389;28;19908;-69
2024/02/04 13:31:59;;;;;;;;;;;;;;;;;;5090979;28;19915;-69
2024/02/04 13:35:17;;;;;;;;;;;;;;;;;;5091842;27;19916;-69
2024/02/04 13:37:47;;;;;;;;;;;;;;;;;;5091244;28;19913;-69
2024/02/04 13:40:13;;;;;;;;;;;;;;;;;;5091222;28;19908;-69
2024/02/04 13:42:39;;;;;;;;;;;;;;;;;;5091117;28;20396;-69
2024/02/04 13:45:05;;;;;;;;;;;;;;;;;;5091164;28;19908;-69
2024/02/04 13:47:31;;;;;;;;;;;;;;;;;;5090679;28;19915;-69
2024/02/04 13:49:57;;;;;;;;;;;;;;;;;;5091018;28;19995;-69
2024/02/04 13:54:36;;;;;;;;;;;;;;;;;;5091060;27;19917;-69
2024/02/04 13:57:02;;;;;;;;;;;;;;;;;;5091358;28;20031;-70
2024/02/04 13:59:28;;;;;;;;;;;;;;;;;;5091321;28;19908;-69
2024/02/04 14:01:54;;;;;;;;;;;;;;;;;;5090741;28;19912;-69
2024/02/04 14:04:20;;;;;;;;;;;;;;;;;;5091134;28;19962;-70
2024/02/04 14:06:46;;;;;;;;;;;;;;;;;;5091101;28;19916;-69
2024/02/04 14:10:24;;;;;;;;;;;;;;;;;;5112523;27;19922;-69
2024/02/04 14:12:50;;;;;;;;;;;;;;;;;;5111696;28;19998;-69
2024/02/04 14:15:16;;;;;;;;;;;;;;;;;;5109807;28;19999;-69
2024/02/04 14:17:42;;;;;;;;;;;;;;;;;;5111610;28;19914;-69
2024/02/04 14:20:09;;;;;;;;;;;;;;;;;;5111419;28;19912;-69
2024/02/04 14:22:35;;;;;;;;;;;;;;;;;;5111278;28;19912;-69
2024/02/04 14:27:03;;;;;;;;;;;;;;;;;;5111810;27;19916;-69
2024/02/04 14:29:29;;;;;;;;;;;;;;;;;;5111257;28;19912;-69
2024/02/04 14:31:56;;;;;;;;;;;;;;;;;;5111540;28;19915;-69
2024/02/04 14:34:22;;;;;;;;;;;;;;;;;;5111547;28;20108;-69
2024/02/04 14:36:47;;;;;;;;;;;;;;;;;;5111030;28;19913;-70
2024/02/04 14:39:14;;;;;;;;;;;;;;;;;;5111471;28;20007;-70
2024/02/04 14:41:40;;;;;;;;;;;;;;;;;;5111413;28;19915;-70
2024/02/04 14:44:06;;;;;;;;;;;;;;;;;;5110965;28;19908;-70
2024/02/04 14:46:31;;;;;;;;;;;;;;;;;;5111634;28;20084;-71
2024/02/04 14:48:57;;;;;;;;;;;;;;;;;;5111424;28;19923;-70
2024/02/04 14:52:53;;;;;;;;;;;;;;;;;;5132725;27;20006;-69
2024/02/04 14:55:19;;;;;;;;;;;;;;;;;;5132113;28;19954;-69
2024/02/04 14:57:46;;;;;;;;;;;;;;;;;;5131741;27;20031;-70
2024/02/04 15:00:11;;;;;;;;;;;;;;;;;;5132050;27;19911;-71
2024/02/04 15:02:38;;;;;;;;;;;;;;;;;;5132118;27;19908;-70
2024/02/04 15:05:04;;;;;;;;;;;;;;;;;;5131550;27;19915;-70
2024/02/04 15:07:30;;;;;;;;;;;;;;;;;;5132005;27;19938;-70
2024/02/04 15:10:42;;;;;;;;;;;;;;;;;;5112347;27;20283;-69
2024/02/04 15:14:24;;;;;;;;;;;;;;;;;;5112156;27;20299;-71
2024/02/04 15:16:50;;;;;;;;;;;;;;;;;;5111608;28;19912;-70
2024/02/04 15:19:16;;;;;;;;;;;;;;;;;;5110931;28;19908;-69
2024/02/04 15:24:14;;;;;;;;;;;;;;;;;;5091530;27;19916;-69
2024/02/04 15:26:42;;;;;;;;;;;;;;;;;;5090821;28;20288;-71
2024/02/04 15:30:41;;;;;;;;;;;;;;;;;;5091488;27;19917;-72
2024/02/04 15:33:07;;;;;;;;;;;;;;;;;;5090933;28;20341;-70
2024/02/04 15:35:33;;;;;;;;;;;;;;;;;;5091220;28;19909;-70
2024/02/04 15:37:59;;;;;;;;;;;;;;;;;;5091136;28;19909;-70
2024/02/04 15:41:02;;;;;;;;;;;;;;;;;;5090981;27;19916;-69
2024/02/04 15:45:05;;;;;;;;;;;;;;;;;;5091664;27;20294;-70
2024/02/04 15:47:34;;;;;;;;;;;;;;;;;;5091272;28;19999;-68
2024/02/04 15:50:00;;;;;;;;;;;;;;;;;;5091730;28;19969;-68
2024/02/04 15:52:31;;;;;;;;;;;;;;;;;;5091177;28;20271;-68
2024/02/04 15:54:57;;;;;;;;;;;;;;;;;;5090733;28;19908;-69
2024/02/04 15:58:49;;;;;;;;;;;;;;;;;;5132461;27;20022;-69
2024/02/04 16:01:45;;;;;;;;;;;;;;;;;;5091261;27;19913;-69
2024/02/04 16:04:11;;;;;;;;;;;;;;;;;;5091186;28;19923;-71
2024/02/04 16:06:38;;;;;;;;;;;;;;;;;;5091199;28;20007;-71
2024/02/04 16:09:55;;;;;;;;;;;;;;;;;;5091366;27;20310;-71
2024/02/04 16:12:21;;;;;;;;;;;;;;;;;;5091331;28;19913;-70
2024/02/04 16:14:48;;;;;;;;;;;;;;;;;;5090811;28;19908;-69
2024/02/04 16:17:16;;;;;;;;;;;;;;;;;;5091240;28;19916;-69
2024/02/04 16:19:42;;;;;;;;;;;;;;;;;;5091089;28;20005;-69
2024/02/04 16:22:08;;;;;;;;;;;;;;;;;;5090735;28;19908;-69
2024/02/04 16:24:34;;;;;;;;;;;;;;;;;;5090992;28;20326;-69
2024/02/04 16:27:00;;;;;;;;;;;;;;;;;;5090922;28;19998;-70
2024/02/04 16:29:29;;;;;;;;;;;;;;;;;;5090447;28;19923;-70
2024/02/04 16:31:55;;;;;;;;;;;;;;;;;;5090895;28;19940;-70
2024/02/04 16:34:21;;;;;;;;;;;;;;;;;;5090930;28;20384;-69
2024/02/04 16:36:48;;;;;;;;;;;;;;;;;;5090365;28;19991;-69
2024/02/04 16:39:14;;;;;;;;;;;;;;;;;;5090744;28;19912;-69
2024/02/04 16:41:40;;;;;;;;;;;;;;;;;;5090679;28;20403;-69
2024/02/04 16:44:06;;;;;;;;;;;;;;;;;;5088869;28;20271;-69
2024/02/04 16:46:32;;;;;;;;;;;;;;;;;;5090618;28;19913;-69
2024/02/04 16:48:57;;;;;;;;;;;;;;;;;;5090510;28;19971;-70
2024/02/04 16:51:23;;;;;;;;;;;;;;;;;;5090059;28;19954;-70
2024/02/04 16:53:49;;;;;;;;;;;;;;;;;;5090641;28;19908;-70
2024/02/04 16:56:15;;;;;;;;;;;;;;;;;;5090598;28;19916;-70
2024/02/04 16:58:41;;;;;;;;;;;;;;;;;;5089972;28;19912;-69
2024/02/04 17:01:07;;;;;;;;;;;;;;;;;;5090303;28;19939;-70
2024/02/04 17:03:35;;;;;;;;;;;;;;;;;;5090197;28;20070;-70
2024/02/04 17:06:00;;;;;;;;;;;;;;;;;;5089844;28;19909;-70
2024/02/04 17:08:26;;;;;;;;;;;;;;;;;;5098448;28;19920;-69
2024/02/04 17:10:52;;;;;;;;;;;;;;;;;;5110034;28;19912;-70
2024/02/04 17:13:18;;;;;;;;;;;;;;;;;;5110525;28;19912;-70
2024/02/04 17:15:46;;;;;;;;;;;;;;;;;;5110393;28;19912;-70
2024/02/04 17:18:11;;;;;;;;;;;;;;;;;;5110440;28;19908;-70
2024/02/04 17:20:37;;;;;;;;;;;;;;;;;;5100117;28;20387;-70
2024/02/04 17:23:03;;;;;;;;;;;;;;;;;;5096700;28;19912;-70
2024/02/04 17:25:29;;;;;;;;;;;;;;;;;;5096171;28;19908;-70